sensor_id;sensor_type;location;lat;lon;timestamp;temperature;humidity
43185;DHT22;28803;52.308;19.096;2023-03-01T00:01:14;-3.30;99.90
43185;DHT22;28803;52.308;19.096;2023-03-01T00:03:43;-3.30;99.90
43185;DHT22;28803;52.308;19.096;2023-03-01T00:06:10;-3.30;99.90
43185;DHT22;28803;52.308;19.096;2023-03-01T00:08:38;-3.30;99.90
43185;DHT22;28803;52.308;19.096;2023-03-01T00:11:26;-3.30;99.90
43185;DHT22;28803;52.308;19.096;2023-03-01T00:13:57;-3.30;99.90
43185;DHT22;28803;52.308;19.096;2023-03-01T00:16:30;-3.30;99.90
43185;DHT22;28803;52.308;19.096;2023-03-01T00:18:58;-3.30;99.90
43185;DHT22;28803;52.308;19.096;2023-03-01T00:21:26;-3.30;99.90
43185;DHT22;28803;52.308;19.096;2023-03-01T00:23:55;-3.30;99.90
43185;DHT22;28803;52.308;19.096;2023-03-01T00:26:23;-3.30;99.90
43185;DHT22;28803;52.308;19.096;2023-03-01T00:28:51;-3.30;99.90
43185;DHT22;28803;52.308;19.096;2023-03-01T00:31:21;-3.30;99.90
43185;DHT22;28803;52.308;19.096;2023-03-01T00:33:51;-3.30;99.90
43185;DHT22;28803;52.308;19.096;2023-03-01T00:36:18;-3.40;99.90
43185;DHT22;28803;52.308;19.096;2023-03-01T00:38:46;-3.30;99.90
43185;DHT22;28803;52.308;19.096;2023-03-01T00:41:16;-3.40;99.90
43185;DHT22;28803;52.308;19.096;2023-03-01T00:43:44;-3.30;99.90
43185;DHT22;28803;52.308;19.096;2023-03-01T00:46:15;-3.30;99.90
43185;DHT22;28803;52.308;19.096;2023-03-01T00:48:44;-3.30;99.90
43185;DHT22;28803;52.308;19.096;2023-03-01T00:51:18;-3.20;99.90
43185;DHT22;28803;52.308;19.096;2023-03-01T00:53:46;-3.20;99.90
43185;DHT22;28803;52.308;19.096;2023-03-01T00:56:14;-3.20;99.90
43185;DHT22;28803;52.308;19.096;2023-03-01T00:58:42;-3.20;99.90
43185;DHT22;28803;52.308;19.096;2023-03-01T01:01:18;-3.20;99.90
43185;DHT22;28803;52.308;19.096;2023-03-01T01:03:51;-3.20;99.90
43185;DHT22;28803;52.308;19.096;2023-03-01T01:06:27;-3.30;99.90
43185;DHT22;28803;52.308;19.096;2023-03-01T01:08:56;-3.30;99.90
43185;DHT22;28803;52.308;19.096;2023-03-01T01:11:26;-3.30;99.90
43185;DHT22;28803;52.308;19.096;2023-03-01T01:13:54;-3.40;99.90
43185;DHT22;28803;52.308;19.096;2023-03-01T01:16:23;-3.40;99.90
43185;DHT22;28803;52.308;19.096;2023-03-01T01:18:50;-3.40;99.90
43185;DHT22;28803;52.308;19.096;2023-03-01T01:21:20;-3.50;99.90
43185;DHT22;28803;52.308;19.096;2023-03-01T01:23:48;-3.50;99.90
43185;DHT22;28803;52.308;19.096;2023-03-01T01:26:18;-3.50;99.90
43185;DHT22;28803;52.308;19.096;2023-03-01T01:28:46;-3.40;99.90
43185;DHT22;28803;52.308;19.096;2023-03-01T01:31:14;-3.40;99.90
43185;DHT22;28803;52.308;19.096;2023-03-01T01:33:41;-3.40;99.90
43185;DHT22;28803;52.308;19.096;2023-03-01T01:36:09;-3.40;99.90
43185;DHT22;28803;52.308;19.096;2023-03-01T01:38:38;-3.40;99.90
43185;DHT22;28803;52.308;19.096;2023-03-01T01:41:06;-1.80;99.90
43185;DHT22;28803;52.308;19.096;2023-03-01T01:43:36;-3.40;99.90
43185;DHT22;28803;52.308;19.096;2023-03-01T01:48:54;-3.40;99.90
43185;DHT22;28803;52.308;19.096;2023-03-01T01:51:25;-3.40;99.90
43185;DHT22;28803;52.308;19.096;2023-03-01T01:53:59;-3.40;99.90
43185;DHT22;28803;52.308;19.096;2023-03-01T01:56:28;-3.40;99.90
43185;DHT22;28803;52.308;19.096;2023-03-01T01:58:57;-3.50;99.90
43185;DHT22;28803;52.308;19.096;2023-03-01T02:01:24;-3.50;99.90
43185;DHT22;28803;52.308;19.096;2023-03-01T02:03:52;-3.50;99.90
43185;DHT22;28803;52.308;19.096;2023-03-01T02:06:28;-3.50;99.90
43185;DHT22;28803;52.308;19.096;2023-03-01T02:09:01;-3.50;99.90
43185;DHT22;28803;52.308;19.096;2023-03-01T02:11:31;-3.60;99.90
43185;DHT22;28803;52.308;19.096;2023-03-01T02:13:58;-3.60;99.90
43185;DHT22;28803;52.308;19.096;2023-03-01T02:16:26;-3.70;99.90
43185;DHT22;28803;52.308;19.096;2023-03-01T02:18:54;-3.70;99.90
43185;DHT22;28803;52.308;19.096;2023-03-01T02:27:20;-3.70;99.90
43185;DHT22;28803;52.308;19.096;2023-03-01T02:29:49;-3.70;99.90
43185;DHT22;28803;52.308;19.096;2023-03-01T02:32:16;-3.70;99.90
43185;DHT22;28803;52.308;19.096;2023-03-01T02:34:54;-3.70;99.90
43185;DHT22;28803;52.308;19.096;2023-03-01T02:37:22;-3.70;99.90
43185;DHT22;28803;52.308;19.096;2023-03-01T02:39:59;-3.70;99.90
43185;DHT22;28803;52.308;19.096;2023-03-01T02:42:37;-3.70;99.90
43185;DHT22;28803;52.308;19.096;2023-03-01T02:45:08;-3.70;99.90
43185;DHT22;28803;52.308;19.096;2023-03-01T02:47:36;-3.70;99.90
43185;DHT22;28803;52.308;19.096;2023-03-01T02:50:22;-3.70;99.90
43185;DHT22;28803;52.308;19.096;2023-03-01T02:53:10;-3.60;99.90
43185;DHT22;28803;52.308;19.096;2023-03-01T02:55:40;-3.60;99.90
43185;DHT22;28803;52.308;19.096;2023-03-01T02:58:07;-3.60;99.90
43185;DHT22;28803;52.308;19.096;2023-03-01T03:00:42;-3.50;99.90
43185;DHT22;28803;52.308;19.096;2023-03-01T03:03:14;-3.50;99.90
43185;DHT22;28803;52.308;19.096;2023-03-01T03:05:42;-3.50;99.90
43185;DHT22;28803;52.308;19.096;2023-03-01T03:08:09;-3.50;99.90
43185;DHT22;28803;52.308;19.096;2023-03-01T03:10:39;-3.50;99.90
43185;DHT22;28803;52.308;19.096;2023-03-01T03:13:12;-3.50;99.90
43185;DHT22;28803;52.308;19.096;2023-03-01T03:15:41;-3.50;99.90
43185;DHT22;28803;52.308;19.096;2023-03-01T03:18:12;-3.50;99.90
43185;DHT22;28803;52.308;19.096;2023-03-01T03:20:41;-3.50;99.90
43185;DHT22;28803;52.308;19.096;2023-03-01T03:23:09;-3.50;99.90
43185;DHT22;28803;52.308;19.096;2023-03-01T03:25:36;-3.40;99.90
43185;DHT22;28803;52.308;19.096;2023-03-01T03:28:06;-3.50;99.90
43185;DHT22;28803;52.308;19.096;2023-03-01T03:30:40;-3.50;99.90
43185;DHT22;28803;52.308;19.096;2023-03-01T03:33:08;-3.50;99.90
43185;DHT22;28803;52.308;19.096;2023-03-01T03:35:49;-3.60;99.90
43185;DHT22;28803;52.308;19.096;2023-03-01T03:38:19;-3.60;99.90
43185;DHT22;28803;52.308;19.096;2023-03-01T03:41:01;-3.60;99.90
43185;DHT22;28803;52.308;19.096;2023-03-01T03:43:31;-3.60;99.90
43185;DHT22;28803;52.308;19.096;2023-03-01T03:45:59;-3.60;99.90
43185;DHT22;28803;52.308;19.096;2023-03-01T03:48:26;-3.60;99.90
43185;DHT22;28803;52.308;19.096;2023-03-01T03:50:56;-3.60;99.90
43185;DHT22;28803;52.308;19.096;2023-03-01T03:53:25;-3.50;99.90
43185;DHT22;28803;52.308;19.096;2023-03-01T03:55:53;-3.60;99.90
43185;DHT22;28803;52.308;19.096;2023-03-01T03:58:22;-3.50;99.90
43185;DHT22;28803;52.308;19.096;2023-03-01T04:00:53;-3.60;99.90
43185;DHT22;28803;52.308;19.096;2023-03-01T04:03:20;-3.60;99.90
43185;DHT22;28803;52.308;19.096;2023-03-01T04:05:48;-3.60;99.90
43185;DHT22;28803;52.308;19.096;2023-03-01T04:08:22;-3.60;99.90
43185;DHT22;28803;52.308;19.096;2023-03-01T04:10:51;-3.60;99.90
43185;DHT22;28803;52.308;19.096;2023-03-01T04:13:21;-3.70;99.90
43185;DHT22;28803;52.308;19.096;2023-03-01T04:15:53;-3.70;99.90
43185;DHT22;28803;52.308;19.096;2023-03-01T04:18:22;-3.70;99.90
43185;DHT22;28803;52.308;19.096;2023-03-01T04:20:50;-3.70;99.90
43185;DHT22;28803;52.308;19.096;2023-03-01T04:23:19;-3.70;99.90
43185;DHT22;28803;52.308;19.096;2023-03-01T04:25:51;-3.70;99.90
43185;DHT22;28803;52.308;19.096;2023-03-01T04:28:30;-3.70;99.90
43185;DHT22;28803;52.308;19.096;2023-03-01T04:31:23;-3.70;99.90
43185;DHT22;28803;52.308;19.096;2023-03-01T04:33:52;-3.70;99.90
43185;DHT22;28803;52.308;19.096;2023-03-01T04:36:24;-3.70;99.90
43185;DHT22;28803;52.308;19.096;2023-03-01T04:38:51;-3.70;99.90
43185;DHT22;28803;52.308;19.096;2023-03-01T04:41:21;-3.70;99.90
43185;DHT22;28803;52.308;19.096;2023-03-01T04:43:49;-3.70;99.90
43185;DHT22;28803;52.308;19.096;2023-03-01T04:46:18;-3.70;99.90
43185;DHT22;28803;52.308;19.096;2023-03-01T04:48:46;-3.70;99.90
43185;DHT22;28803;52.308;19.096;2023-03-01T04:51:14;-3.60;99.90
43185;DHT22;28803;52.308;19.096;2023-03-01T04:53:43;-3.70;99.90
43185;DHT22;28803;52.308;19.096;2023-03-01T04:56:11;-3.60;99.90
43185;DHT22;28803;52.308;19.096;2023-03-01T04:58:40;-3.60;99.90
43185;DHT22;28803;52.308;19.096;2023-03-01T05:01:16;-3.60;99.90
43185;DHT22;28803;52.308;19.096;2023-03-01T05:03:46;-3.60;99.90
43185;DHT22;28803;52.308;19.096;2023-03-01T05:06:14;-3.60;99.90
43185;DHT22;28803;52.308;19.096;2023-03-01T05:08:42;-3.60;99.90
43185;DHT22;28803;52.308;19.096;2023-03-01T05:11:10;-3.60;99.90
43185;DHT22;28803;52.308;19.096;2023-03-01T05:13:38;-3.60;99.90
43185;DHT22;28803;52.308;19.096;2023-03-01T05:16:07;-3.70;99.90
43185;DHT22;28803;52.308;19.096;2023-03-01T05:18:39;-3.70;99.90
43185;DHT22;28803;52.308;19.096;2023-03-01T05:21:09;-3.60;99.90
43185;DHT22;28803;52.308;19.096;2023-03-01T05:23:38;-3.60;99.90
43185;DHT22;28803;52.308;19.096;2023-03-01T05:26:07;-3.60;99.90
43185;DHT22;28803;52.308;19.096;2023-03-01T05:28:48;-3.60;99.90
43185;DHT22;28803;52.308;19.096;2023-03-01T05:31:15;-3.60;99.90
43185;DHT22;28803;52.308;19.096;2023-03-01T05:33:42;-3.60;99.90
43185;DHT22;28803;52.308;19.096;2023-03-01T05:36:10;-3.60;99.90
43185;DHT22;28803;52.308;19.096;2023-03-01T05:38:37;-3.50;99.90
43185;DHT22;28803;52.308;19.096;2023-03-01T05:41:05;-3.50;99.90
43185;DHT22;28803;52.308;19.096;2023-03-01T05:43:32;-3.50;99.90
43185;DHT22;28803;52.308;19.096;2023-03-01T05:46:02;-3.40;99.90
43185;DHT22;28803;52.308;19.096;2023-03-01T05:48:29;-3.40;99.90
43185;DHT22;28803;52.308;19.096;2023-03-01T05:50:59;-3.30;99.90
43185;DHT22;28803;52.308;19.096;2023-03-01T05:53:27;-3.30;99.90
43185;DHT22;28803;52.308;19.096;2023-03-01T05:55:54;-3.20;99.90
43185;DHT22;28803;52.308;19.096;2023-03-01T05:58:21;-3.10;99.90
43185;DHT22;28803;52.308;19.096;2023-03-01T06:00:49;-3.00;99.90
43185;DHT22;28803;52.308;19.096;2023-03-01T06:03:18;-3.00;99.90
43185;DHT22;28803;52.308;19.096;2023-03-01T06:05:46;-2.90;99.90
43185;DHT22;28803;52.308;19.096;2023-03-01T06:08:13;-2.80;99.90
43185;DHT22;28803;52.308;19.096;2023-03-01T06:10:41;-2.70;99.90
43185;DHT22;28803;52.308;19.096;2023-03-01T06:13:08;-2.60;99.90
43185;DHT22;28803;52.308;19.096;2023-03-01T06:15:35;-2.50;99.90
43185;DHT22;28803;52.308;19.096;2023-03-01T06:18:03;-2.50;99.90
43185;DHT22;28803;52.308;19.096;2023-03-01T06:20:30;-2.30;99.90
43185;DHT22;28803;52.308;19.096;2023-03-01T06:22:57;-2.20;99.90
43185;DHT22;28803;52.308;19.096;2023-03-01T06:25:26;-1.90;99.90
43185;DHT22;28803;52.308;19.096;2023-03-01T06:27:54;-1.50;99.90
43185;DHT22;28803;52.308;19.096;2023-03-01T06:30:23;-1.20;99.90
43185;DHT22;28803;52.308;19.096;2023-03-01T06:32:51;-0.80;99.90
43185;DHT22;28803;52.308;19.096;2023-03-01T06:35:19;-0.40;99.90
43185;DHT22;28803;52.308;19.096;2023-03-01T06:37:47;0.00;99.90
43185;DHT22;28803;52.308;19.096;2023-03-01T06:40:15;0.30;99.90
43185;DHT22;28803;52.308;19.096;2023-03-01T06:42:47;0.50;99.90
43185;DHT22;28803;52.308;19.096;2023-03-01T06:45:17;0.90;99.90
43185;DHT22;28803;52.308;19.096;2023-03-01T06:47:45;1.40;99.90
43185;DHT22;28803;52.308;19.096;2023-03-01T06:50:13;2.00;99.90
43185;DHT22;28803;52.308;19.096;2023-03-01T06:52:41;2.50;99.90
43185;DHT22;28803;52.308;19.096;2023-03-01T06:55:11;3.00;99.90
43185;DHT22;28803;52.308;19.096;2023-03-01T06:57:39;3.40;99.90
43185;DHT22;28803;52.308;19.096;2023-03-01T07:00:07;4.00;99.90
43185;DHT22;28803;52.308;19.096;2023-03-01T07:02:35;4.60;98.80
43185;DHT22;28803;52.308;19.096;2023-03-01T07:05:02;5.00;97.20
43185;DHT22;28803;52.308;19.096;2023-03-01T07:07:30;5.40;95.80
43185;DHT22;28803;52.308;19.096;2023-03-01T07:09:57;5.80;94.20
43185;DHT22;28803;52.308;19.096;2023-03-01T07:12:24;6.30;92.60
43185;DHT22;28803;52.308;19.096;2023-03-01T07:14:51;6.70;90.60
43185;DHT22;28803;52.308;19.096;2023-03-01T07:17:19;6.90;88.80
43185;DHT22;28803;52.308;19.096;2023-03-01T07:19:46;7.00;86.50
43185;DHT22;28803;52.308;19.096;2023-03-01T07:22:14;7.20;84.60
43185;DHT22;28803;52.308;19.096;2023-03-01T07:24:42;7.30;83.80
43185;DHT22;28803;52.308;19.096;2023-03-01T07:27:10;7.60;81.90
43185;DHT22;28803;52.308;19.096;2023-03-01T07:29:37;8.00;80.70
43185;DHT22;28803;52.308;19.096;2023-03-01T07:32:05;8.50;78.90
43185;DHT22;28803;52.308;19.096;2023-03-01T07:34:32;9.10;75.40
43185;DHT22;28803;52.308;19.096;2023-03-01T07:37:00;9.30;72.50
43185;DHT22;28803;52.308;19.096;2023-03-01T07:39:27;8.70;73.00
43185;DHT22;28803;52.308;19.096;2023-03-01T07:41:54;7.90;76.90
43185;DHT22;28803;52.308;19.096;2023-03-01T07:44:21;7.90;78.60
43185;DHT22;28803;52.308;19.096;2023-03-01T07:46:49;9.00;75.60
43185;DHT22;28803;52.308;19.096;2023-03-01T07:49:16;10.50;70.20
43185;DHT22;28803;52.308;19.096;2023-03-01T07:51:43;11.80;65.40
43185;DHT22;28803;52.308;19.096;2023-03-01T07:54:10;13.10;61.00
43185;DHT22;28803;52.308;19.096;2023-03-01T07:56:38;13.70;57.60
43185;DHT22;28803;52.308;19.096;2023-03-01T07:59:05;14.00;56.10
43185;DHT22;28803;52.308;19.096;2023-03-01T08:01:32;14.20;55.50
43185;DHT22;28803;52.308;19.096;2023-03-01T08:03:59;14.50;54.80
43185;DHT22;28803;52.308;19.096;2023-03-01T08:06:27;14.90;53.30
43185;DHT22;28803;52.308;19.096;2023-03-01T08:08:54;15.20;52.70
43185;DHT22;28803;52.308;19.096;2023-03-01T08:11:25;15.70;51.60
43185;DHT22;28803;52.308;19.096;2023-03-01T08:13:54;16.00;50.90
43185;DHT22;28803;52.308;19.096;2023-03-01T08:16:22;16.20;50.10
43185;DHT22;28803;52.308;19.096;2023-03-01T08:18:49;16.30;49.80
43185;DHT22;28803;52.308;19.096;2023-03-01T08:21:17;16.40;49.60
43185;DHT22;28803;52.308;19.096;2023-03-01T08:23:45;16.80;48.50
43185;DHT22;28803;52.308;19.096;2023-03-01T08:28:41;17.60;47.40
43185;DHT22;28803;52.308;19.096;2023-03-01T08:31:31;17.90;46.60
43185;DHT22;28803;52.308;19.096;2023-03-01T08:34:01;18.40;45.50
43185;DHT22;28803;52.308;19.096;2023-03-01T08:36:38;18.70;45.10
43185;DHT22;28803;52.308;19.096;2023-03-01T08:39:07;18.90;44.60
43185;DHT22;28803;52.308;19.096;2023-03-01T08:41:34;19.10;44.20
43185;DHT22;28803;52.308;19.096;2023-03-01T08:44:02;19.30;43.80
43185;DHT22;28803;52.308;19.096;2023-03-01T08:46:32;19.40;43.70
43185;DHT22;28803;52.308;19.096;2023-03-01T08:49:11;19.60;43.20
43185;DHT22;28803;52.308;19.096;2023-03-01T08:51:39;19.40;43.20
43185;DHT22;28803;52.308;19.096;2023-03-01T08:54:09;19.20;43.00
43185;DHT22;28803;52.308;19.096;2023-03-01T08:56:38;18.80;42.90
43185;DHT22;28803;52.308;19.096;2023-03-01T08:59:05;19.20;43.70
43185;DHT22;28803;52.308;19.096;2023-03-01T09:01:33;19.60;42.90
43185;DHT22;28803;52.308;19.096;2023-03-01T09:04:00;19.90;42.10
43185;DHT22;28803;52.308;19.096;2023-03-01T09:06:30;19.50;42.20
43185;DHT22;28803;52.308;19.096;2023-03-01T09:08:59;19.60;42.10
43185;DHT22;28803;52.308;19.096;2023-03-01T09:11:28;19.50;42.00
43185;DHT22;28803;52.308;19.096;2023-03-01T09:13:55;19.30;42.20
43185;DHT22;28803;52.308;19.096;2023-03-01T09:16:23;19.20;42.20
43185;DHT22;28803;52.308;19.096;2023-03-01T09:18:54;19.10;42.60
43185;DHT22;28803;52.308;19.096;2023-03-01T09:21:22;19.10;43.10
43185;DHT22;28803;52.308;19.096;2023-03-01T09:24:08;19.10;43.20
43185;DHT22;28803;52.308;19.096;2023-03-01T09:26:39;19.30;43.00
43185;DHT22;28803;52.308;19.096;2023-03-01T09:29:06;19.50;41.80
43185;DHT22;28803;52.308;19.096;2023-03-01T09:31:33;19.70;41.60
43185;DHT22;28803;52.308;19.096;2023-03-01T09:34:00;19.70;41.00
43185;DHT22;28803;52.308;19.096;2023-03-01T09:36:28;19.90;40.40
43185;DHT22;28803;52.308;19.096;2023-03-01T09:38:57;19.90;40.30
43185;DHT22;28803;52.308;19.096;2023-03-01T09:42:00;19.80;40.90
43185;DHT22;28803;52.308;19.096;2023-03-01T09:44:48;20.10;40.50
43185;DHT22;28803;52.308;19.096;2023-03-01T09:47:21;20.80;40.00
43185;DHT22;28803;52.308;19.096;2023-03-01T09:55:31;21.40;39.20
43185;DHT22;28803;52.308;19.096;2023-03-01T09:58:14;21.40;39.30
43185;DHT22;28803;52.308;19.096;2023-03-01T10:00:49;21.50;39.50
43185;DHT22;28803;52.308;19.096;2023-03-01T10:03:35;21.90;39.10
43185;DHT22;28803;52.308;19.096;2023-03-01T10:09:03;22.50;39.00
43185;DHT22;28803;52.308;19.096;2023-03-01T10:11:36;21.20;39.90
43185;DHT22;28803;52.308;19.096;2023-03-01T10:15:10;18.80;42.10
43185;DHT22;28803;52.308;19.096;2023-03-01T10:17:03;15.70;47.00
43185;DHT22;28803;52.308;19.096;2023-03-01T10:19:41;12.90;52.90
43185;DHT22;28803;52.308;19.096;2023-03-01T10:24:41;9.30;63.10
43185;DHT22;28803;52.308;19.096;2023-03-01T10:32:38;7.10;73.60
43185;DHT22;28803;52.308;19.096;2023-03-01T10:35:25;6.80;77.70
43185;DHT22;28803;52.308;19.096;2023-03-01T10:38:02;6.50;86.70
43185;DHT22;28803;52.308;19.096;2023-03-01T10:40:31;6.30;90.40
43185;DHT22;28803;52.308;19.096;2023-03-01T10:43:01;6.10;91.70
43185;DHT22;28803;52.308;19.096;2023-03-01T10:48:32;5.80;94.20
43185;DHT22;28803;52.308;19.096;2023-03-01T10:53:31;5.50;96.90
43185;DHT22;28803;52.308;19.096;2023-03-01T10:56:01;5.50;98.30
43185;DHT22;28803;52.308;19.096;2023-03-01T10:58:29;5.40;98.30
43185;DHT22;28803;52.308;19.096;2023-03-01T11:01:30;5.30;99.50
43185;DHT22;28803;52.308;19.096;2023-03-01T11:06:39;5.10;99.90
43185;DHT22;28803;52.308;19.096;2023-03-01T11:09:13;5.10;99.90
43185;DHT22;28803;52.308;19.096;2023-03-01T11:11:41;5.00;99.90
43185;DHT22;28803;52.308;19.096;2023-03-01T11:14:23;4.90;99.90
43185;DHT22;28803;52.308;19.096;2023-03-01T11:17:05;4.90;99.90
43185;DHT22;28803;52.308;19.096;2023-03-01T11:19:33;4.90;99.90
43185;DHT22;28803;52.308;19.096;2023-03-01T11:22:13;4.90;99.90
43185;DHT22;28803;52.308;19.096;2023-03-01T11:24:46;4.90;99.90
43185;DHT22;28803;52.308;19.096;2023-03-01T11:27:32;4.90;99.90
43185;DHT22;28803;52.308;19.096;2023-03-01T11:30:07;4.90;99.90
43185;DHT22;28803;52.308;19.096;2023-03-01T11:32:45;4.90;99.90
43185;DHT22;28803;52.308;19.096;2023-03-01T11:35:32;4.90;99.90
43185;DHT22;28803;52.308;19.096;2023-03-01T11:38:15;4.90;99.90
43185;DHT22;28803;52.308;19.096;2023-03-01T11:54:18;5.10;99.90
43185;DHT22;28803;52.308;19.096;2023-03-01T11:57:04;5.10;99.90
43185;DHT22;28803;52.308;19.096;2023-03-01T11:59:47;5.00;99.90
43185;DHT22;28803;52.308;19.096;2023-03-01T12:05:12;5.10;99.90
43185;DHT22;28803;52.308;19.096;2023-03-01T12:07:56;5.10;99.90
43185;DHT22;28803;52.308;19.096;2023-03-01T12:10:35;5.20;99.90
43185;DHT22;28803;52.308;19.096;2023-03-01T12:19:56;5.30;99.90
43185;DHT22;28803;52.308;19.096;2023-03-01T12:22:34;5.30;99.90
43185;DHT22;28803;52.308;19.096;2023-03-01T12:28:14;5.30;99.90
43185;DHT22;28803;52.308;19.096;2023-03-01T12:33:33;5.30;99.90
43185;DHT22;28803;52.308;19.096;2023-03-01T12:39:04;5.30;99.90
43185;DHT22;28803;52.308;19.096;2023-03-01T12:44:30;5.40;99.90
43185;DHT22;28803;52.308;19.096;2023-03-01T12:50:00;5.40;99.90
43185;DHT22;28803;52.308;19.096;2023-03-01T12:52:42;5.40;99.90
43185;DHT22;28803;52.308;19.096;2023-03-01T12:55:37;5.50;99.90
43185;DHT22;28803;52.308;19.096;2023-03-01T13:01:13;5.50;99.90
43185;DHT22;28803;52.308;19.096;2023-03-01T13:06:55;5.40;99.90
43185;DHT22;28803;52.308;19.096;2023-03-01T13:09:28;5.50;99.90
43185;DHT22;28803;52.308;19.096;2023-03-01T13:11:57;5.50;99.90
43185;DHT22;28803;52.308;19.096;2023-03-01T13:16:52;5.50;99.90
43185;DHT22;28803;52.308;19.096;2023-03-01T13:19:25;5.50;99.90
43185;DHT22;28803;52.308;19.096;2023-03-01T13:21:54;5.60;99.90
43185;DHT22;28803;52.308;19.096;2023-03-01T13:24:35;5.80;99.90
43185;DHT22;28803;52.308;19.096;2023-03-01T13:29:53;5.80;99.90
43185;DHT22;28803;52.308;19.096;2023-03-01T13:32:34;5.80;99.90
43185;DHT22;28803;52.308;19.096;2023-03-01T13:37:47;5.90;99.90
43185;DHT22;28803;52.308;19.096;2023-03-01T13:42:47;6.00;99.90
43185;DHT22;28803;52.308;19.096;2023-03-01T13:45:40;5.90;99.90
43185;DHT22;28803;52.308;19.096;2023-03-01T13:48:21;5.90;99.90
43185;DHT22;28803;52.308;19.096;2023-03-01T13:51:03;5.80;99.90
43185;DHT22;28803;52.308;19.096;2023-03-01T13:53:34;5.80;99.90
43185;DHT22;28803;52.308;19.096;2023-03-01T13:56:08;5.80;99.90
43185;DHT22;28803;52.308;19.096;2023-03-01T14:01:26;5.80;99.90
43185;DHT22;28803;52.308;19.096;2023-03-01T14:03:54;5.80;99.90
43185;DHT22;28803;52.308;19.096;2023-03-01T14:06:32;5.80;99.90
43185;DHT22;28803;52.308;19.096;2023-03-01T14:09:04;5.70;99.90
43185;DHT22;28803;52.308;19.096;2023-03-01T14:14:22;5.70;99.90
43185;DHT22;28803;52.308;19.096;2023-03-01T14:20:02;5.70;99.90
43185;DHT22;28803;52.308;19.096;2023-03-01T14:22:34;5.80;99.90
43185;DHT22;28803;52.308;19.096;2023-03-01T14:28:18;5.80;99.90
43185;DHT22;28803;52.308;19.096;2023-03-01T14:30:52;5.70;99.90
43185;DHT22;28803;52.308;19.096;2023-03-01T14:33:40;5.70;99.90
43185;DHT22;28803;52.308;19.096;2023-03-01T14:36:10;5.70;99.90
43185;DHT22;28803;52.308;19.096;2023-03-01T14:38:43;5.70;99.90
43185;DHT22;28803;52.308;19.096;2023-03-01T14:41:20;5.70;99.90
43185;DHT22;28803;52.308;19.096;2023-03-01T14:43:51;5.70;99.90
43185;DHT22;28803;52.308;19.096;2023-03-01T14:46:38;5.70;99.90
43185;DHT22;28803;52.308;19.096;2023-03-01T14:49:26;5.60;99.90
43185;DHT22;28803;52.308;19.096;2023-03-01T14:52:00;5.70;99.90
43185;DHT22;28803;52.308;19.096;2023-03-01T14:54:44;5.60;99.90
43185;DHT22;28803;52.308;19.096;2023-03-01T14:57:22;5.60;99.90
43185;DHT22;28803;52.308;19.096;2023-03-01T14:59:55;5.50;99.90
43185;DHT22;28803;52.308;19.096;2023-03-01T15:02:25;5.50;99.90
43185;DHT22;28803;52.308;19.096;2023-03-01T15:04:58;5.40;99.90
43185;DHT22;28803;52.308;19.096;2023-03-01T15:07:34;5.40;99.90
43185;DHT22;28803;52.308;19.096;2023-03-01T15:10:04;5.40;99.90
43185;DHT22;28803;52.308;19.096;2023-03-01T15:12:37;5.30;99.90
43185;DHT22;28803;52.308;19.096;2023-03-01T15:17:59;5.20;99.90
43185;DHT22;28803;52.308;19.096;2023-03-01T15:20:27;5.20;99.90
43185;DHT22;28803;52.308;19.096;2023-03-01T15:22:57;5.20;99.90
43185;DHT22;28803;52.308;19.096;2023-03-01T15:25:27;5.10;99.90
43185;DHT22;28803;52.308;19.096;2023-03-01T15:27:56;6.70;99.90
43185;DHT22;28803;52.308;19.096;2023-03-01T15:30:35;5.00;99.90
43185;DHT22;28803;52.308;19.096;2023-03-01T15:35:50;5.00;99.90
43185;DHT22;28803;52.308;19.096;2023-03-01T15:38:52;4.90;99.90
43185;DHT22;28803;52.308;19.096;2023-03-01T15:41:30;4.90;99.90
43185;DHT22;28803;52.308;19.096;2023-03-01T15:44:23;4.70;99.90
43185;DHT22;28803;52.308;19.096;2023-03-01T15:46:56;4.50;99.90
43185;DHT22;28803;52.308;19.096;2023-03-01T15:49:41;4.50;99.90
43185;DHT22;28803;52.308;19.096;2023-03-01T15:52:27;4.40;99.90
43185;DHT22;28803;52.308;19.096;2023-03-01T15:55:00;4.40;99.90
43185;DHT22;28803;52.308;19.096;2023-03-01T15:57:28;4.20;99.90
43185;DHT22;28803;52.308;19.096;2023-03-01T15:59:56;4.10;99.90
43185;DHT22;28803;52.308;19.096;2023-03-01T16:02:24;4.00;99.90
43185;DHT22;28803;52.308;19.096;2023-03-01T16:04:51;3.90;99.90
43185;DHT22;28803;52.308;19.096;2023-03-01T16:07:20;3.90;99.90
43185;DHT22;28803;52.308;19.096;2023-03-01T16:09:47;3.70;99.90
43185;DHT22;28803;52.308;19.096;2023-03-01T16:12:16;3.60;99.90
43185;DHT22;28803;52.308;19.096;2023-03-01T16:14:43;3.50;99.90
43185;DHT22;28803;52.308;19.096;2023-03-01T16:17:10;3.30;99.90
43185;DHT22;28803;52.308;19.096;2023-03-01T16:19:38;3.20;99.90
43185;DHT22;28803;52.308;19.096;2023-03-01T16:22:05;3.10;99.90
43185;DHT22;28803;52.308;19.096;2023-03-01T16:24:32;2.90;99.90
43185;DHT22;28803;52.308;19.096;2023-03-01T16:26:59;2.80;99.90
43185;DHT22;28803;52.308;19.096;2023-03-01T16:29:27;2.70;99.90
43185;DHT22;28803;52.308;19.096;2023-03-01T16:31:56;2.60;99.90
43185;DHT22;28803;52.308;19.096;2023-03-01T16:34:23;2.50;99.90
43185;DHT22;28803;52.308;19.096;2023-03-01T16:36:50;2.40;99.90
43185;DHT22;28803;52.308;19.096;2023-03-01T16:39:17;2.30;99.90
43185;DHT22;28803;52.308;19.096;2023-03-01T16:41:44;2.20;99.90
43185;DHT22;28803;52.308;19.096;2023-03-01T16:44:12;2.10;99.90
43185;DHT22;28803;52.308;19.096;2023-03-01T16:46:41;2.10;99.90
43185;DHT22;28803;52.308;19.096;2023-03-01T16:49:09;2.00;99.90
43185;DHT22;28803;52.308;19.096;2023-03-01T16:51:36;1.90;99.90
43185;DHT22;28803;52.308;19.096;2023-03-01T16:54:04;1.80;99.90
43185;DHT22;28803;52.308;19.096;2023-03-01T16:56:31;1.70;99.90
43185;DHT22;28803;52.308;19.096;2023-03-01T16:59:01;1.70;99.90
43185;DHT22;28803;52.308;19.096;2023-03-01T17:01:32;1.60;99.90
43185;DHT22;28803;52.308;19.096;2023-03-01T17:04:09;1.60;99.90
43185;DHT22;28803;52.308;19.096;2023-03-01T17:06:37;1.50;99.90
43185;DHT22;28803;52.308;19.096;2023-03-01T17:09:04;1.50;99.90
43185;DHT22;28803;52.308;19.096;2023-03-01T17:11:31;1.40;99.90
43185;DHT22;28803;52.308;19.096;2023-03-01T17:13:59;1.30;99.90
43185;DHT22;28803;52.308;19.096;2023-03-01T17:16:26;1.30;99.90
43185;DHT22;28803;52.308;19.096;2023-03-01T17:18:54;1.30;99.90
43185;DHT22;28803;52.308;19.096;2023-03-01T17:21:21;1.20;99.90
43185;DHT22;28803;52.308;19.096;2023-03-01T17:23:48;1.20;99.90
43185;DHT22;28803;52.308;19.096;2023-03-01T17:26:16;1.20;99.90
43185;DHT22;28803;52.308;19.096;2023-03-01T17:28:44;1.20;99.90
43185;DHT22;28803;52.308;19.096;2023-03-01T17:31:11;1.30;99.90
43185;DHT22;28803;52.308;19.096;2023-03-01T17:33:38;1.30;99.90
43185;DHT22;28803;52.308;19.096;2023-03-01T17:36:05;1.30;99.90